sensor_id;sensor_type;location;lat;lon;timestamp;temperature;humidity
13713;DHT22;6928;50.546;7.120;2022-12-29T00:01:49;12.07;80.33
13713;DHT22;6928;50.546;7.120;2022-12-29T00:04:17;12.08;80.28
13713;DHT22;6928;50.546;7.120;2022-12-29T00:06:44;12.01;80.56
13713;DHT22;6928;50.546;7.120;2022-12-29T00:09:11;12.05;80.51
13713;DHT22;6928;50.546;7.120;2022-12-29T00:11:39;12.02;80.59
13713;DHT22;6928;50.546;7.120;2022-12-29T00:14:07;12.17;79.96
13713;DHT22;6928;50.546;7.120;2022-12-29T00:16:54;12.13;80.23
13713;DHT22;6928;50.546;7.120;2022-12-29T00:19:21;12.11;80.28
13713;DHT22;6928;50.546;7.120;2022-12-29T00:22:08;12.09;80.25
13713;DHT22;6928;50.546;7.120;2022-12-29T00:24:52;12.13;79.92
13713;DHT22;6928;50.546;7.120;2022-12-29T00:27:37;12.22;79.41
13713;DHT22;6928;50.546;7.120;2022-12-29T00:30:23;12.28;79.10
13713;DHT22;6928;50.546;7.120;2022-12-29T00:33:11;12.32;78.98
13713;DHT22;6928;50.546;7.120;2022-12-29T00:35:59;12.34;78.91
13713;DHT22;6928;50.546;7.120;2022-12-29T00:38:30;12.27;79.16
13713;DHT22;6928;50.546;7.120;2022-12-29T00:41:15;12.31;79.05
13713;DHT22;6928;50.546;7.120;2022-12-29T00:43:59;12.27;79.35
13713;DHT22;6928;50.546;7.120;2022-12-29T00:46:33;12.29;79.10
13713;DHT22;6928;50.546;7.120;2022-12-29T00:49:02;12.35;78.58
13713;DHT22;6928;50.546;7.120;2022-12-29T00:51:47;12.41;78.37
13713;DHT22;6928;50.546;7.120;2022-12-29T00:54:16;12.29;78.88
13713;DHT22;6928;50.546;7.120;2022-12-29T00:56:43;12.36;78.64
13713;DHT22;6928;50.546;7.120;2022-12-29T00:59:10;12.38;78.36
13713;DHT22;6928;50.546;7.120;2022-12-29T01:01:38;12.34;78.66
13713;DHT22;6928;50.546;7.120;2022-12-29T01:04:08;12.45;77.71
13713;DHT22;6928;50.546;7.120;2022-12-29T01:06:36;12.48;77.40
13713;DHT22;6928;50.546;7.120;2022-12-29T01:09:04;12.48;77.35
13713;DHT22;6928;50.546;7.120;2022-12-29T01:11:49;12.44;77.26
13713;DHT22;6928;50.546;7.120;2022-12-29T01:14:17;12.49;76.33
13713;DHT22;6928;50.546;7.120;2022-12-29T01:16:44;12.49;76.46
13713;DHT22;6928;50.546;7.120;2022-12-29T01:19:16;12.56;75.93
13713;DHT22;6928;50.546;7.120;2022-12-29T01:21:42;12.56;75.97
13713;DHT22;6928;50.546;7.120;2022-12-29T01:24:09;12.59;75.93
13713;DHT22;6928;50.546;7.120;2022-12-29T01:26:36;12.52;76.20
13713;DHT22;6928;50.546;7.120;2022-12-29T01:29:03;12.65;75.41
13713;DHT22;6928;50.546;7.120;2022-12-29T01:31:30;12.56;75.78
13713;DHT22;6928;50.546;7.120;2022-12-29T01:33:56;12.52;75.97
13713;DHT22;6928;50.546;7.120;2022-12-29T01:36:24;12.62;75.45
13713;DHT22;6928;50.546;7.120;2022-12-29T01:38:51;12.52;75.96
13713;DHT22;6928;50.546;7.120;2022-12-29T01:41:19;12.63;75.53
13713;DHT22;6928;50.546;7.120;2022-12-29T01:43:47;12.57;75.77
13713;DHT22;6928;50.546;7.120;2022-12-29T01:46:26;12.63;75.52
13713;DHT22;6928;50.546;7.120;2022-12-29T01:48:59;12.66;75.49
13713;DHT22;6928;50.546;7.120;2022-12-29T01:51:32;12.59;75.74
13713;DHT22;6928;50.546;7.120;2022-12-29T01:54:02;12.52;76.15
13713;DHT22;6928;50.546;7.120;2022-12-29T01:56:31;12.55;76.31
13713;DHT22;6928;50.546;7.120;2022-12-29T01:59:04;12.46;76.60
13713;DHT22;6928;50.546;7.120;2022-12-29T02:01:32;12.49;76.74
13713;DHT22;6928;50.546;7.120;2022-12-29T02:03:59;12.49;77.41
13713;DHT22;6928;50.546;7.120;2022-12-29T02:06:31;12.48;77.68
13713;DHT22;6928;50.546;7.120;2022-12-29T02:08:59;12.44;77.56
13713;DHT22;6928;50.546;7.120;2022-12-29T02:11:26;12.46;77.77
13713;DHT22;6928;50.546;7.120;2022-12-29T02:13:55;12.44;77.76
13713;DHT22;6928;50.546;7.120;2022-12-29T02:16:34;12.41;78.07
13713;DHT22;6928;50.546;7.120;2022-12-29T02:19:25;12.39;78.97
13713;DHT22;6928;50.546;7.120;2022-12-29T02:22:09;12.27;79.76
13713;DHT22;6928;50.546;7.120;2022-12-29T02:25:15;12.20;80.12
13713;DHT22;6928;50.546;7.120;2022-12-29T02:28:44;12.22;80.19
13713;DHT22;6928;50.546;7.120;2022-12-29T02:31:17;12.21;80.29
13713;DHT22;6928;50.546;7.120;2022-12-29T02:34:02;12.14;80.70
13713;DHT22;6928;50.546;7.120;2022-12-29T02:36:42;12.13;80.72
13713;DHT22;6928;50.546;7.120;2022-12-29T02:39:15;12.13;80.75
13713;DHT22;6928;50.546;7.120;2022-12-29T02:41:54;12.14;80.62
13713;DHT22;6928;50.546;7.120;2022-12-29T02:44:29;12.20;80.29
13713;DHT22;6928;50.546;7.120;2022-12-29T02:47:07;12.27;79.96
13713;DHT22;6928;50.546;7.120;2022-12-29T02:49:40;12.21;80.23
13713;DHT22;6928;50.546;7.120;2022-12-29T02:52:16;12.31;79.59
13713;DHT22;6928;50.546;7.120;2022-12-29T02:54:44;12.32;79.43
13713;DHT22;6928;50.546;7.120;2022-12-29T02:57:13;12.34;79.42
13713;DHT22;6928;50.546;7.120;2022-12-29T02:59:41;12.44;78.92
13713;DHT22;6928;50.546;7.120;2022-12-29T03:02:34;12.46;78.58
13713;DHT22;6928;50.546;7.120;2022-12-29T03:05:46;12.34;79.29
13713;DHT22;6928;50.546;7.120;2022-12-29T03:08:22;12.36;79.12
13713;DHT22;6928;50.546;7.120;2022-12-29T03:10:59;12.35;79.25
13713;DHT22;6928;50.546;7.120;2022-12-29T03:13:35;12.34;79.34
13713;DHT22;6928;50.546;7.120;2022-12-29T03:16:23;12.29;79.67
13713;DHT22;6928;50.546;7.120;2022-12-29T03:18:58;12.27;79.89
13713;DHT22;6928;50.546;7.120;2022-12-29T03:21:33;12.34;79.53
13713;DHT22;6928;50.546;7.120;2022-12-29T03:24:24;12.39;79.33
13713;DHT22;6928;50.546;7.120;2022-12-29T03:26:53;12.44;79.34
13713;DHT22;6928;50.546;7.120;2022-12-29T03:29:21;12.28;80.13
13713;DHT22;6928;50.546;7.120;2022-12-29T03:31:49;12.25;80.70
13713;DHT22;6928;50.546;7.120;2022-12-29T03:34:20;12.21;80.55
13713;DHT22;6928;50.546;7.120;2022-12-29T03:36:53;12.25;80.26
13713;DHT22;6928;50.546;7.120;2022-12-29T03:39:22;12.20;80.55
13713;DHT22;6928;50.546;7.120;2022-12-29T03:41:54;12.27;79.87
13713;DHT22;6928;50.546;7.120;2022-12-29T03:44:32;12.32;79.42
13713;DHT22;6928;50.546;7.120;2022-12-29T03:46:59;12.28;79.63
13713;DHT22;6928;50.546;7.120;2022-12-29T03:49:28;12.27;79.69
13713;DHT22;6928;50.546;7.120;2022-12-29T03:51:54;12.22;80.02
13713;DHT22;6928;50.546;7.120;2022-12-29T03:54:21;12.13;80.44
13713;DHT22;6928;50.546;7.120;2022-12-29T03:56:48;12.27;79.70
13713;DHT22;6928;50.546;7.120;2022-12-29T03:59:15;12.20;80.04
13713;DHT22;6928;50.546;7.120;2022-12-29T04:01:42;12.18;80.32
13713;DHT22;6928;50.546;7.120;2022-12-29T04:04:08;12.21;80.34
13713;DHT22;6928;50.546;7.120;2022-12-29T04:06:37;12.20;80.56
13713;DHT22;6928;50.546;7.120;2022-12-29T04:09:04;12.14;80.70
13713;DHT22;6928;50.546;7.120;2022-12-29T04:11:31;12.18;80.21
13713;DHT22;6928;50.546;7.120;2022-12-29T04:13:58;12.11;80.53
13713;DHT22;6928;50.546;7.120;2022-12-29T04:16:24;12.09;80.54
13713;DHT22;6928;50.546;7.120;2022-12-29T04:18:51;12.09;80.54
13713;DHT22;6928;50.546;7.120;2022-12-29T04:21:18;12.11;80.30
13713;DHT22;6928;50.546;7.120;2022-12-29T04:23:46;12.08;80.11
13713;DHT22;6928;50.546;7.120;2022-12-29T04:26:13;12.07;79.78
13713;DHT22;6928;50.546;7.120;2022-12-29T04:28:39;12.11;79.10
13713;DHT22;6928;50.546;7.120;2022-12-29T04:31:06;12.13;78.81
13713;DHT22;6928;50.546;7.120;2022-12-29T04:33:33;12.18;78.24
13713;DHT22;6928;50.546;7.120;2022-12-29T04:35:59;12.09;78.55
13713;DHT22;6928;50.546;7.120;2022-12-29T04:38:26;12.11;78.35
13713;DHT22;6928;50.546;7.120;2022-12-29T04:40:54;12.08;78.50
13713;DHT22;6928;50.546;7.120;2022-12-29T04:43:21;12.11;79.17
13713;DHT22;6928;50.546;7.120;2022-12-29T04:45:48;11.91;80.60
13713;DHT22;6928;50.546;7.120;2022-12-29T04:48:15;11.83;81.45
13713;DHT22;6928;50.546;7.120;2022-12-29T04:50:42;11.91;81.27
13713;DHT22;6928;50.546;7.120;2022-12-29T04:53:09;11.87;81.68
13713;DHT22;6928;50.546;7.120;2022-12-29T04:55:36;11.81;82.12
13713;DHT22;6928;50.546;7.120;2022-12-29T04:58:04;11.80;82.44
13713;DHT22;6928;50.546;7.120;2022-12-29T05:00:31;11.77;82.78
13713;DHT22;6928;50.546;7.120;2022-12-29T05:02:58;11.74;83.04
13713;DHT22;6928;50.546;7.120;2022-12-29T05:05:24;11.73;82.99
13713;DHT22;6928;50.546;7.120;2022-12-29T05:07:51;11.77;83.03
13713;DHT22;6928;50.546;7.120;2022-12-29T05:10:18;11.74;83.35
13713;DHT22;6928;50.546;7.120;2022-12-29T05:12:45;11.87;82.39
13713;DHT22;6928;50.546;7.120;2022-12-29T05:15:13;11.87;82.45
13713;DHT22;6928;50.546;7.120;2022-12-29T05:17:40;11.86;82.71
13713;DHT22;6928;50.546;7.120;2022-12-29T05:20:08;11.87;82.46
13713;DHT22;6928;50.546;7.120;2022-12-29T05:22:35;11.81;82.87
13713;DHT22;6928;50.546;7.120;2022-12-29T05:25:02;11.91;82.08
13713;DHT22;6928;50.546;7.120;2022-12-29T05:27:29;11.88;82.20
13713;DHT22;6928;50.546;7.120;2022-12-29T05:29:56;11.87;82.58
13713;DHT22;6928;50.546;7.120;2022-12-29T05:32:24;11.80;82.64
13713;DHT22;6928;50.546;7.120;2022-12-29T05:34:51;11.90;82.07
13713;DHT22;6928;50.546;7.120;2022-12-29T05:37:18;11.95;81.56
13713;DHT22;6928;50.546;7.120;2022-12-29T05:39:44;11.95;81.73
13713;DHT22;6928;50.546;7.120;2022-12-29T05:42:11;11.90;81.83
13713;DHT22;6928;50.546;7.120;2022-12-29T05:44:38;11.94;81.78
13713;DHT22;6928;50.546;7.120;2022-12-29T05:47:05;11.90;82.33
13713;DHT22;6928;50.546;7.120;2022-12-29T05:49:33;11.88;82.46
13713;DHT22;6928;50.546;7.120;2022-12-29T05:52:00;11.84;82.98
13713;DHT22;6928;50.546;7.120;2022-12-29T05:54:26;11.84;82.60
13713;DHT22;6928;50.546;7.120;2022-12-29T05:56:53;11.94;82.39
13713;DHT22;6928;50.546;7.120;2022-12-29T05:59:20;11.91;82.74
13713;DHT22;6928;50.546;7.120;2022-12-29T06:01:47;11.84;83.25
13713;DHT22;6928;50.546;7.120;2022-12-29T06:04:14;11.76;83.76
13713;DHT22;6928;50.546;7.120;2022-12-29T06:06:42;11.77;83.65
13713;DHT22;6928;50.546;7.120;2022-12-29T06:09:10;11.77;84.04
13713;DHT22;6928;50.546;7.120;2022-12-29T06:11:37;11.71;84.62
13713;DHT22;6928;50.546;7.120;2022-12-29T06:14:04;11.67;85.07
13713;DHT22;6928;50.546;7.120;2022-12-29T06:16:30;11.60;85.04
13713;DHT22;6928;50.546;7.120;2022-12-29T06:18:57;11.62;85.19
13713;DHT22;6928;50.546;7.120;2022-12-29T06:21:24;11.67;85.34
13713;DHT22;6928;50.546;7.120;2022-12-29T06:23:52;11.66;85.33
13713;DHT22;6928;50.546;7.120;2022-12-29T06:26:19;11.42;86.84
13713;DHT22;6928;50.546;7.120;2022-12-29T06:28:46;11.42;87.02
13713;DHT22;6928;50.546;7.120;2022-12-29T06:31:12;11.30;88.22
13713;DHT22;6928;50.546;7.120;2022-12-29T06:33:39;11.26;88.16
13713;DHT22;6928;50.546;7.120;2022-12-29T06:36:06;11.08;89.24
13713;DHT22;6928;50.546;7.120;2022-12-29T06:38:33;10.99;89.84
13713;DHT22;6928;50.546;7.120;2022-12-29T06:41:02;11.08;88.66
13713;DHT22;6928;50.546;7.120;2022-12-29T06:43:29;11.18;88.52
13713;DHT22;6928;50.546;7.120;2022-12-29T06:45:57;11.16;87.66
13713;DHT22;6928;50.546;7.120;2022-12-29T06:48:24;11.28;86.71
13713;DHT22;6928;50.546;7.120;2022-12-29T06:50:51;11.38;85.01
13713;DHT22;6928;50.546;7.120;2022-12-29T06:53:17;11.39;85.32
13713;DHT22;6928;50.546;7.120;2022-12-29T06:55:44;11.28;86.25
13713;DHT22;6928;50.546;7.120;2022-12-29T06:58:12;11.22;86.29
13713;DHT22;6928;50.546;7.120;2022-12-29T07:00:39;11.20;85.58
13713;DHT22;6928;50.546;7.120;2022-12-29T07:03:06;11.25;85.30
13713;DHT22;6928;50.546;7.120;2022-12-29T07:05:32;11.18;85.63
13713;DHT22;6928;50.546;7.120;2022-12-29T07:07:59;11.15;85.49
13713;DHT22;6928;50.546;7.120;2022-12-29T07:10:27;11.20;84.18
13713;DHT22;6928;50.546;7.120;2022-12-29T07:12:53;11.25;83.22
13713;DHT22;6928;50.546;7.120;2022-12-29T07:15:21;11.19;82.91
13713;DHT22;6928;50.546;7.120;2022-12-29T07:17:48;11.19;83.50
13713;DHT22;6928;50.546;7.120;2022-12-29T07:20:16;11.15;83.19
13713;DHT22;6928;50.546;7.120;2022-12-29T07:22:42;11.25;81.26
13713;DHT22;6928;50.546;7.120;2022-12-29T07:25:09;11.19;81.59
13713;DHT22;6928;50.546;7.120;2022-12-29T07:27:36;11.09;82.07
13713;DHT22;6928;50.546;7.120;2022-12-29T07:30:04;11.05;82.31
13713;DHT22;6928;50.546;7.120;2022-12-29T07:32:34;11.14;81.67
13713;DHT22;6928;50.546;7.120;2022-12-29T07:35:01;11.05;81.54
13713;DHT22;6928;50.546;7.120;2022-12-29T07:37:28;11.15;81.32
13713;DHT22;6928;50.546;7.120;2022-12-29T07:39:54;11.11;80.57
13713;DHT22;6928;50.546;7.120;2022-12-29T07:42:21;11.11;80.03
13713;DHT22;6928;50.546;7.120;2022-12-29T07:44:48;11.01;80.95
13713;DHT22;6928;50.546;7.120;2022-12-29T07:47:15;11.18;81.29
13713;DHT22;6928;50.546;7.120;2022-12-29T07:49:43;11.11;80.67
13713;DHT22;6928;50.546;7.120;2022-12-29T07:52:10;11.07;80.27
13713;DHT22;6928;50.546;7.120;2022-12-29T07:54:37;11.05;80.25
13713;DHT22;6928;50.546;7.120;2022-12-29T07:57:04;11.05;79.53
13713;DHT22;6928;50.546;7.120;2022-12-29T07:59:31;11.04;80.40
13713;DHT22;6928;50.546;7.120;2022-12-29T08:01:58;11.12;79.35
13713;DHT22;6928;50.546;7.120;2022-12-29T08:04:24;11.08;80.09
13713;DHT22;6928;50.546;7.120;2022-12-29T08:06:52;11.04;80.21
13713;DHT22;6928;50.546;7.120;2022-12-29T08:09:19;11.04;79.74
13713;DHT22;6928;50.546;7.120;2022-12-29T08:11:46;11.12;79.14
13713;DHT22;6928;50.546;7.120;2022-12-29T08:14:12;11.11;79.37
13713;DHT22;6928;50.546;7.120;2022-12-29T08:16:39;11.08;80.13
13713;DHT22;6928;50.546;7.120;2022-12-29T08:19:06;11.12;79.60
13713;DHT22;6928;50.546;7.120;2022-12-29T08:21:33;11.04;80.35
13713;DHT22;6928;50.546;7.120;2022-12-29T08:24:01;10.99;79.95
13713;DHT22;6928;50.546;7.120;2022-12-29T08:26:28;11.02;79.82
13713;DHT22;6928;50.546;7.120;2022-12-29T08:28:54;11.12;79.36
13713;DHT22;6928;50.546;7.120;2022-12-29T08:31:22;11.07;79.71
13713;DHT22;6928;50.546;7.120;2022-12-29T08:33:49;11.04;80.12
13713;DHT22;6928;50.546;7.120;2022-12-29T08:36:16;11.01;79.92
13713;DHT22;6928;50.546;7.120;2022-12-29T08:38:43;11.14;79.36
13713;DHT22;6928;50.546;7.120;2022-12-29T08:41:11;11.08;79.47
13713;DHT22;6928;50.546;7.120;2022-12-29T08:43:38;11.14;79.61
13713;DHT22;6928;50.546;7.120;2022-12-29T08:46:05;11.19;78.39
13713;DHT22;6928;50.546;7.120;2022-12-29T08:48:32;11.23;78.54
13713;DHT22;6928;50.546;7.120;2022-12-29T08:50:59;11.23;78.98
13713;DHT22;6928;50.546;7.120;2022-12-29T08:53:26;11.26;78.83
13713;DHT22;6928;50.546;7.120;2022-12-29T08:55:58;11.29;78.71
13713;DHT22;6928;50.546;7.120;2022-12-29T08:58:27;11.26;78.77
13713;DHT22;6928;50.546;7.120;2022-12-29T09:00:56;11.30;77.83
13713;DHT22;6928;50.546;7.120;2022-12-29T09:03:24;11.30;77.89
13713;DHT22;6928;50.546;7.120;2022-12-29T09:05:51;11.29;78.39
13713;DHT22;6928;50.546;7.120;2022-12-29T09:08:19;11.35;77.82
13713;DHT22;6928;50.546;7.120;2022-12-29T09:10:46;11.39;78.90
13713;DHT22;6928;50.546;7.120;2022-12-29T09:13:13;11.30;77.30
13713;DHT22;6928;50.546;7.120;2022-12-29T09:15:42;11.39;77.29
13713;DHT22;6928;50.546;7.120;2022-12-29T09:18:10;11.39;76.83
13713;DHT22;6928;50.546;7.120;2022-12-29T09:20:37;11.40;77.66
13713;DHT22;6928;50.546;7.120;2022-12-29T09:23:04;11.47;77.05
13713;DHT22;6928;50.546;7.120;2022-12-29T09:25:32;11.46;75.91
13713;DHT22;6928;50.546;7.120;2022-12-29T09:27:59;11.43;76.60
13713;DHT22;6928;50.546;7.120;2022-12-29T09:30:29;11.36;77.14
13713;DHT22;6928;50.546;7.120;2022-12-29T09:32:57;11.50;77.00
13713;DHT22;6928;50.546;7.120;2022-12-29T09:35:24;11.57;75.86
13713;DHT22;6928;50.546;7.120;2022-12-29T09:37:51;11.63;75.33
13713;DHT22;6928;50.546;7.120;2022-12-29T09:40:26;11.71;75.34
13713;DHT22;6928;50.546;7.120;2022-12-29T09:43:29;11.77;75.12
13713;DHT22;6928;50.546;7.120;2022-12-29T09:46:08;11.80;75.06
13713;DHT22;6928;50.546;7.120;2022-12-29T09:48:45;11.95;73.62
13713;DHT22;6928;50.546;7.120;2022-12-29T09:51:17;12.01;74.04
13713;DHT22;6928;50.546;7.120;2022-12-29T09:53:49;12.13;73.83
13713;DHT22;6928;50.546;7.120;2022-12-29T09:56:21;12.14;73.82
13713;DHT22;6928;50.546;7.120;2022-12-29T09:58:53;12.02;74.11
13713;DHT22;6928;50.546;7.120;2022-12-29T10:01:28;12.15;73.90
13713;DHT22;6928;50.546;7.120;2022-12-29T10:03:59;11.98;73.11
13713;DHT22;6928;50.546;7.120;2022-12-29T10:06:34;12.05;73.86
13713;DHT22;6928;50.546;7.120;2022-12-29T10:09:12;11.88;73.64
13713;DHT22;6928;50.546;7.120;2022-12-29T10:12:02;12.04;73.72
13713;DHT22;6928;50.546;7.120;2022-12-29T10:14:45;12.15;73.68
13713;DHT22;6928;50.546;7.120;2022-12-29T10:17:27;12.41;73.93
13713;DHT22;6928;50.546;7.120;2022-12-29T10:20:15;12.28;74.26
13713;DHT22;6928;50.546;7.120;2022-12-29T10:23:11;12.11;73.86
13713;DHT22;6928;50.546;7.120;2022-12-29T10:25:44;12.17;73.70
13713;DHT22;6928;50.546;7.120;2022-12-29T10:28:19;12.18;73.27
13713;DHT22;6928;50.546;7.120;2022-12-29T10:30:49;12.18;72.70
13713;DHT22;6928;50.546;7.120;2022-12-29T10:33:21;12.17;72.36
13713;DHT22;6928;50.546;7.120;2022-12-29T10:35:51;12.14;73.64
13713;DHT22;6928;50.546;7.120;2022-12-29T10:38:25;12.14;72.60
13713;DHT22;6928;50.546;7.120;2022-12-29T10:40:58;12.13;71.79
13713;DHT22;6928;50.546;7.120;2022-12-29T10:43:28;12.14;71.16
13713;DHT22;6928;50.546;7.120;2022-12-29T10:45:59;12.09;71.53
13713;DHT22;6928;50.546;7.120;2022-12-29T10:48:30;12.04;71.20
13713;DHT22;6928;50.546;7.120;2022-12-29T10:51:01;12.13;71.74
13713;DHT22;6928;50.546;7.120;2022-12-29T10:53:35;12.28;70.62
13713;DHT22;6928;50.546;7.120;2022-12-29T10:56:14;12.31;70.54
13713;DHT22;6928;50.546;7.120;2022-12-29T10:58:43;12.48;70.87
13713;DHT22;6928;50.546;7.120;2022-12-29T11:01:12;12.56;69.91
13713;DHT22;6928;50.546;7.120;2022-12-29T11:04:00;12.60;69.63
13713;DHT22;6928;50.546;7.120;2022-12-29T11:06:30;12.42;70.33
13713;DHT22;6928;50.546;7.120;2022-12-29T11:09:01;12.49;70.59
13713;DHT22;6928;50.546;7.120;2022-12-29T11:11:34;12.28;69.17
13713;DHT22;6928;50.546;7.120;2022-12-29T11:14:10;12.38;69.31
13713;DHT22;6928;50.546;7.120;2022-12-29T11:16:38;12.41;69.32
13713;DHT22;6928;50.546;7.120;2022-12-29T11:19:04;12.38;69.56
13713;DHT22;6928;50.546;7.120;2022-12-29T11:21:36;12.46;69.32
13713;DHT22;6928;50.546;7.120;2022-12-29T11:24:20;12.55;69.34
13713;DHT22;6928;50.546;7.120;2022-12-29T11:26:50;12.50;69.37
13713;DHT22;6928;50.546;7.120;2022-12-29T11:29:25;12.39;69.34
13713;DHT22;6928;50.546;7.120;2022-12-29T11:31:54;12.31;68.76
13713;DHT22;6928;50.546;7.120;2022-12-29T11:34:23;12.38;68.26
13713;DHT22;6928;50.546;7.120;2022-12-29T11:36:57;12.25;68.85
13713;DHT22;6928;50.546;7.120;2022-12-29T11:39:33;12.31;68.60
13713;DHT22;6928;50.546;7.120;2022-12-29T11:42:01;12.27;69.05
13713;DHT22;6928;50.546;7.120;2022-12-29T11:44:35;12.22;67.88
13713;DHT22;6928;50.546;7.120;2022-12-29T11:47:03;12.15;67.13
13713;DHT22;6928;50.546;7.120;2022-12-29T11:49:31;12.14;67.66
13713;DHT22;6928;50.546;7.120;2022-12-29T11:52:00;12.09;67.84
13713;DHT22;6928;50.546;7.120;2022-12-29T11:54:31;12.08;67.77
13713;DHT22;6928;50.546;7.120;2022-12-29T11:57:09;12.08;68.29
13713;DHT22;6928;50.546;7.120;2022-12-29T11:59:43;12.11;68.12
13713;DHT22;6928;50.546;7.120;2022-12-29T12:02:36;12.07;67.72
13713;DHT22;6928;50.546;7.120;2022-12-29T12:05:17;12.13;67.64
13713;DHT22;6928;50.546;7.120;2022-12-29T12:07:52;12.18;68.05
13713;DHT22;6928;50.546;7.120;2022-12-29T12:10:27;12.27;67.78
13713;DHT22;6928;50.546;7.120;2022-12-29T12:13:04;12.42;65.68
13713;DHT22;6928;50.546;7.120;2022-12-29T12:15:37;12.55;66.38
13713;DHT22;6928;50.546;7.120;2022-12-29T12:18:11;12.55;64.85
13713;DHT22;6928;50.546;7.120;2022-12-29T12:20:48;12.65;64.82
13713;DHT22;6928;50.546;7.120;2022-12-29T12:23:30;12.57;64.68
13713;DHT22;6928;50.546;7.120;2022-12-29T12:26:04;12.44;64.47
13713;DHT22;6928;50.546;7.120;2022-12-29T12:28:45;12.65;64.22
13713;DHT22;6928;50.546;7.120;2022-12-29T12:31:24;12.52;64.44
13713;DHT22;6928;50.546;7.120;2022-12-29T12:33:58;12.52;65.06
13713;DHT22;6928;50.546;7.120;2022-12-29T12:37:08;12.52;63.98
13713;DHT22;6928;50.546;7.120;2022-12-29T12:39:49;12.42;64.36
13713;DHT22;6928;50.546;7.120;2022-12-29T12:42:38;12.31;65.18
13713;DHT22;6928;50.546;7.120;2022-12-29T12:45:34;12.22;65.85
13713;DHT22;6928;50.546;7.120;2022-12-29T12:48:18;12.18;65.69
13713;DHT22;6928;50.546;7.120;2022-12-29T12:50:55;12.15;65.94
13713;DHT22;6928;50.546;7.120;2022-12-29T12:53:35;12.11;66.32
13713;DHT22;6928;50.546;7.120;2022-12-29T12:56:34;12.09;66.40
13713;DHT22;6928;50.546;7.120;2022-12-29T12:59:15;12.05;66.86
13713;DHT22;6928;50.546;7.120;2022-12-29T13:01:53;12.13;67.24
13713;DHT22;6928;50.546;7.120;2022-12-29T13:04:48;12.14;67.10
13713;DHT22;6928;50.546;7.120;2022-12-29T13:07:28;12.13;67.01
13713;DHT22;6928;50.546;7.120;2022-12-29T13:10:13;12.11;66.35
13713;DHT22;6928;50.546;7.120;2022-12-29T13:12:49;12.15;66.36
13713;DHT22;6928;50.546;7.120;2022-12-29T13:15:37;12.18;66.16
13713;DHT22;6928;50.546;7.120;2022-12-29T13:18:19;12.08;66.47
13713;DHT22;6928;50.546;7.120;2022-12-29T13:20:55;12.07;66.27
13713;DHT22;6928;50.546;7.120;2022-12-29T13:23:30;11.98;66.90
13713;DHT22;6928;50.546;7.120;2022-12-29T13:26:06;12.05;67.29
13713;DHT22;6928;50.546;7.120;2022-12-29T13:28:50;11.95;67.40
13713;DHT22;6928;50.546;7.120;2022-12-29T13:31:28;11.86;67.79
13713;DHT22;6928;50.546;7.120;2022-12-29T13:34:05;11.93;68.48
13713;DHT22;6928;50.546;7.120;2022-12-29T13:36:42;11.93;67.91
13713;DHT22;6928;50.546;7.120;2022-12-29T13:39:15;11.91;68.37
13713;DHT22;6928;50.546;7.120;2022-12-29T13:41:47;11.90;67.63
13713;DHT22;6928;50.546;7.120;2022-12-29T13:44:22;11.94;68.07
13713;DHT22;6928;50.546;7.120;2022-12-29T13:46:50;11.91;67.68
13713;DHT22;6928;50.546;7.120;2022-12-29T13:49:20;11.91;67.89
13713;DHT22;6928;50.546;7.120;2022-12-29T13:51:52;11.90;67.11
13713;DHT22;6928;50.546;7.120;2022-12-29T13:54:35;11.84;66.20
13713;DHT22;6928;50.546;7.120;2022-12-29T13:57:08;11.87;65.15
13713;DHT22;6928;50.546;7.120;2022-12-29T13:59:48;11.83;64.90
13713;DHT22;6928;50.546;7.120;2022-12-29T14:02:26;11.84;65.11
13713;DHT22;6928;50.546;7.120;2022-12-29T14:05:00;11.86;64.66
13713;DHT22;6928;50.546;7.120;2022-12-29T14:07:29;11.88;65.50
13713;DHT22;6928;50.546;7.120;2022-12-29T14:10:02;11.83;65.27
13713;DHT22;6928;50.546;7.120;2022-12-29T14:12:32;11.73;65.17
13713;DHT22;6928;50.546;7.120;2022-12-29T14:15:22;11.71;65.85
13713;DHT22;6928;50.546;7.120;2022-12-29T14:18:10;11.65;65.70
13713;DHT22;6928;50.546;7.120;2022-12-29T14:20:39;11.69;65.56
13713;DHT22;6928;50.546;7.120;2022-12-29T14:23:26;11.67;65.89
13713;DHT22;6928;50.546;7.120;2022-12-29T14:26:09;11.66;65.95
13713;DHT22;6928;50.546;7.120;2022-12-29T14:28:38;11.66;66.51
13713;DHT22;6928;50.546;7.120;2022-12-29T14:31:35;11.60;66.13
13713;DHT22;6928;50.546;7.120;2022-12-29T14:34:29;11.57;66.26
13713;DHT22;6928;50.546;7.120;2022-12-29T14:36:58;11.43;67.09
13713;DHT22;6928;50.546;7.120;2022-12-29T14:39:36;11.49;66.29
13713;DHT22;6928;50.546;7.120;2022-12-29T14:42:06;11.47;66.84
13713;DHT22;6928;50.546;7.120;2022-12-29T14:44:47;11.52;66.78
13713;DHT22;6928;50.546;7.120;2022-12-29T14:47:20;11.47;65.89
13713;DHT22;6928;50.546;7.120;2022-12-29T14:49:49;11.39;66.70
13713;DHT22;6928;50.546;7.120;2022-12-29T14:52:20;11.30;66.61
13713;DHT22;6928;50.546;7.120;2022-12-29T14:54:52;11.30;66.54
13713;DHT22;6928;50.546;7.120;2022-12-29T14:57:26;11.30;66.35
13713;DHT22;6928;50.546;7.120;2022-12-29T14:59:57;11.22;66.67
13713;DHT22;6928;50.546;7.120;2022-12-29T15:02:39;11.22;66.40
13713;DHT22;6928;50.546;7.120;2022-12-29T15:05:27;11.20;66.22
13713;DHT22;6928;50.546;7.120;2022-12-29T15:07:56;11.22;66.50
13713;DHT22;6928;50.546;7.120;2022-12-29T15:10:25;11.26;66.51
13713;DHT22;6928;50.546;7.120;2022-12-29T15:12:54;11.20;67.29
13713;DHT22;6928;50.546;7.120;2022-12-29T15:15:25;11.16;67.36
13713;DHT22;6928;50.546;7.120;2022-12-29T15:17:54;11.12;67.31
13713;DHT22;6928;50.546;7.120;2022-12-29T15:20:25;11.14;67.24
13713;DHT22;6928;50.546;7.120;2022-12-29T15:22:56;11.12;67.42
13713;DHT22;6928;50.546;7.120;2022-12-29T15:25:24;11.08;67.77
13713;DHT22;6928;50.546;7.120;2022-12-29T15:27:54;11.07;68.43
13713;DHT22;6928;50.546;7.120;2022-12-29T15:30:23;10.99;68.73
13713;DHT22;6928;50.546;7.120;2022-12-29T15:32:50;11.04;68.33
13713;DHT22;6928;50.546;7.120;2022-12-29T15:35:32;10.98;68.27
13713;DHT22;6928;50.546;7.120;2022-12-29T15:38:01;10.95;68.06
13713;DHT22;6928;50.546;7.120;2022-12-29T15:40:39;10.91;68.47
13713;DHT22;6928;50.546;7.120;2022-12-29T15:43:21;10.84;68.99
13713;DHT22;6928;50.546;7.120;2022-12-29T15:45:51;10.83;69.42
13713;DHT22;6928;50.546;7.120;2022-12-29T15:48:21;10.77;70.14
13713;DHT22;6928;50.546;7.120;2022-12-29T15:50:51;10.71;71.60
13713;DHT22;6928;50.546;7.120;2022-12-29T15:53:21;10.55;72.29
13713;DHT22;6928;50.546;7.120;2022-12-29T15:55:55;10.55;72.86
13713;DHT22;6928;50.546;7.120;2022-12-29T15:58:25;10.46;73.11
13713;DHT22;6928;50.546;7.120;2022-12-29T16:00:55;10.41;73.43
13713;DHT22;6928;50.546;7.120;2022-12-29T16:03:25;10.34;73.91
13713;DHT22;6928;50.546;7.120;2022-12-29T16:05:56;10.34;74.23
13713;DHT22;6928;50.546;7.120;2022-12-29T16:08:31;10.25;74.56
13713;DHT22;6928;50.546;7.120;2022-12-29T16:11:01;10.13;74.82
13713;DHT22;6928;50.546;7.120;2022-12-29T16:13:32;10.06;75.21
13713;DHT22;6928;50.546;7.120;2022-12-29T16:16:12;10.08;74.57
13713;DHT22;6928;50.546;7.120;2022-12-29T16:18:40;10.12;74.24